South Lorain, Ohio
Current Conditions -  °F | °C
As of 4:53 PM on Friday 19 Dec 2014 (Local Time) from KLPR Reporting Station
Overcast Overcast  
Wind Chill: 29°   Ceiling: 2500
Heat Index: 29°   Visibility: 10mi
Dew Point: 21°   Wind: 3mph
Humidity: 72%   Direction: 300°WNW
Pressure: 30.27"   Gusts: NA
Location:  41.4372°N, 82.1333°W
Report Text: KLPR 192153Z AUTO 30003KT 10SM OVC025 M02/M06 A3027 RMK AO2 SLP259 T10171061 TSNO
Loading
Personal Weather Stations






























Interactive Weather Map New forecast layout! Learn more

10-Day Weather Forecast

Advertisements
Track Severe Weather on mobile